sensor_id;sensor_type;location;lat;lon;timestamp;P1;durP1;ratioP1;P2;durP2;ratioP2
29452;SDS011;16424;50.956;5.320;2023-11-18T00:01:23;25.08;;;15.98;;
29452;SDS011;16424;50.956;5.320;2023-11-18T00:03:49;25.15;;;15.32;;
29452;SDS011;16424;50.956;5.320;2023-11-18T00:06:15;26.80;;;16.10;;
29452;SDS011;16424;50.956;5.320;2023-11-18T00:08:41;24.25;;;15.75;;
29452;SDS011;16424;50.956;5.320;2023-11-18T00:11:07;30.65;;;16.90;;
29452;SDS011;16424;50.956;5.320;2023-11-18T00:13:34;27.20;;;17.60;;
29452;SDS011;16424;50.956;5.320;2023-11-18T00:15:59;32.70;;;17.95;;
29452;SDS011;16424;50.956;5.320;2023-11-18T00:18:25;29.45;;;17.45;;
29452;SDS011;16424;50.956;5.320;2023-11-18T00:20:50;24.75;;;16.27;;
29452;SDS011;16424;50.956;5.320;2023-11-18T00:23:16;26.25;;;16.30;;
29452;SDS011;16424;50.956;5.320;2023-11-18T00:25:42;28.92;;;17.50;;
29452;SDS011;16424;50.956;5.320;2023-11-18T00:28:10;32.97;;;16.50;;
29452;SDS011;16424;50.956;5.320;2023-11-18T00:30:36;24.55;;;16.55;;
29452;SDS011;16424;50.956;5.320;2023-11-18T00:33:02;28.77;;;17.27;;
29452;SDS011;16424;50.956;5.320;2023-11-18T00:35:28;26.65;;;15.57;;
29452;SDS011;16424;50.956;5.320;2023-11-18T00:37:57;27.58;;;16.92;;
29452;SDS011;16424;50.956;5.320;2023-11-18T00:40:23;24.38;;;16.45;;
29452;SDS011;16424;50.956;5.320;2023-11-18T00:42:49;30.73;;;16.92;;
29452;SDS011;16424;50.956;5.320;2023-11-18T00:45:15;24.98;;;16.08;;
29452;SDS011;16424;50.956;5.320;2023-11-18T00:47:41;28.60;;;16.60;;
29452;SDS011;16424;50.956;5.320;2023-11-18T00:50:07;29.55;;;16.83;;
29452;SDS011;16424;50.956;5.320;2023-11-18T00:52:35;26.38;;;17.13;;
29452;SDS011;16424;50.956;5.320;2023-11-18T00:55:07;29.58;;;18.15;;
29452;SDS011;16424;50.956;5.320;2023-11-18T00:57:33;28.25;;;17.80;;
29452;SDS011;16424;50.956;5.320;2023-11-18T01:00:04;28.33;;;17.58;;
29452;SDS011;16424;50.956;5.320;2023-11-18T01:02:38;34.22;;;20.42;;
29452;SDS011;16424;50.956;5.320;2023-11-18T01:05:08;32.53;;;20.88;;
29452;SDS011;16424;50.956;5.320;2023-11-18T01:07:35;35.55;;;20.42;;
29452;SDS011;16424;50.956;5.320;2023-11-18T01:10:02;34.65;;;20.30;;
29452;SDS011;16424;50.956;5.320;2023-11-18T01:12:29;38.20;;;21.33;;
29452;SDS011;16424;50.956;5.320;2023-11-18T01:14:54;37.78;;;20.83;;
29452;SDS011;16424;50.956;5.320;2023-11-18T01:17:20;33.40;;;19.92;;
29452;SDS011;16424;50.956;5.320;2023-11-18T01:19:47;39.92;;;20.92;;
29452;SDS011;16424;50.956;5.320;2023-11-18T01:22:13;39.30;;;20.10;;
29452;SDS011;16424;50.956;5.320;2023-11-18T01:24:38;38.15;;;20.95;;
29452;SDS011;16424;50.956;5.320;2023-11-18T01:27:04;36.55;;;20.48;;
29452;SDS011;16424;50.956;5.320;2023-11-18T01:29:30;43.30;;;20.38;;
29452;SDS011;16424;50.956;5.320;2023-11-18T01:31:56;34.38;;;18.08;;
29452;SDS011;16424;50.956;5.320;2023-11-18T01:34:22;28.63;;;18.05;;
29452;SDS011;16424;50.956;5.320;2023-11-18T01:36:48;31.92;;;18.48;;
29452;SDS011;16424;50.956;5.320;2023-11-18T01:39:18;34.40;;;19.17;;
29452;SDS011;16424;50.956;5.320;2023-11-18T01:41:44;30.08;;;18.70;;
29452;SDS011;16424;50.956;5.320;2023-11-18T01:44:10;29.42;;;17.08;;
29452;SDS011;16424;50.956;5.320;2023-11-18T01:46:38;34.55;;;19.42;;
29452;SDS011;16424;50.956;5.320;2023-11-18T01:49:06;29.80;;;17.55;;
29452;SDS011;16424;50.956;5.320;2023-11-18T01:51:33;29.83;;;18.42;;
29452;SDS011;16424;50.956;5.320;2023-11-18T01:54:00;28.98;;;17.77;;
29452;SDS011;16424;50.956;5.320;2023-11-18T01:56:30;32.72;;;18.63;;
29452;SDS011;16424;50.956;5.320;2023-11-18T01:58:57;30.77;;;18.02;;
29452;SDS011;16424;50.956;5.320;2023-11-18T02:01:24;33.40;;;18.02;;
29452;SDS011;16424;50.956;5.320;2023-11-18T02:03:51;26.67;;;16.30;;
29452;SDS011;16424;50.956;5.320;2023-11-18T02:06:17;30.55;;;17.60;;
29452;SDS011;16424;50.956;5.320;2023-11-18T02:08:43;29.95;;;16.98;;
29452;SDS011;16424;50.956;5.320;2023-11-18T02:11:10;26.08;;;15.63;;
29452;SDS011;16424;50.956;5.320;2023-11-18T02:13:42;26.75;;;15.68;;
29452;SDS011;16424;50.956;5.320;2023-11-18T02:16:12;31.17;;;16.45;;
29452;SDS011;16424;50.956;5.320;2023-11-18T02:18:39;24.23;;;15.85;;
29452;SDS011;16424;50.956;5.320;2023-11-18T02:21:08;24.80;;;15.82;;
29452;SDS011;16424;50.956;5.320;2023-11-18T02:23:36;30.10;;;16.45;;
29452;SDS011;16424;50.956;5.320;2023-11-18T02:26:02;29.52;;;16.05;;
29452;SDS011;16424;50.956;5.320;2023-11-18T02:28:28;32.80;;;16.17;;
29452;SDS011;16424;50.956;5.320;2023-11-18T02:31:00;29.95;;;16.27;;
29452;SDS011;16424;50.956;5.320;2023-11-18T02:33:43;24.40;;;15.52;;
29452;SDS011;16424;50.956;5.320;2023-11-18T02:39:01;24.27;;;14.93;;
29452;SDS011;16424;50.956;5.320;2023-11-18T02:41:34;22.85;;;13.30;;
29452;SDS011;16424;50.956;5.320;2023-11-18T02:44:05;23.67;;;14.68;;
29452;SDS011;16424;50.956;5.320;2023-11-18T02:46:35;20.10;;;13.07;;
29452;SDS011;16424;50.956;5.320;2023-11-18T02:49:03;21.48;;;12.88;;
29452;SDS011;16424;50.956;5.320;2023-11-18T02:51:29;24.17;;;13.60;;
29452;SDS011;16424;50.956;5.320;2023-11-18T02:53:56;21.23;;;12.63;;
29452;SDS011;16424;50.956;5.320;2023-11-18T02:56:22;22.40;;;12.98;;
29452;SDS011;16424;50.956;5.320;2023-11-18T02:58:48;20.23;;;12.15;;
29452;SDS011;16424;50.956;5.320;2023-11-18T03:01:14;17.83;;;11.27;;
29452;SDS011;16424;50.956;5.320;2023-11-18T03:03:39;17.48;;;11.18;;
29452;SDS011;16424;50.956;5.320;2023-11-18T03:06:08;16.02;;;10.88;;
29452;SDS011;16424;50.956;5.320;2023-11-18T03:08:36;19.48;;;13.25;;
29452;SDS011;16424;50.956;5.320;2023-11-18T03:11:02;17.58;;;11.52;;
29452;SDS011;16424;50.956;5.320;2023-11-18T03:13:29;20.83;;;11.43;;
29452;SDS011;16424;50.956;5.320;2023-11-18T03:15:55;15.88;;;10.20;;
29452;SDS011;16424;50.956;5.320;2023-11-18T03:18:20;15.38;;;10.05;;
29452;SDS011;16424;50.956;5.320;2023-11-18T03:20:46;16.40;;;10.25;;
29452;SDS011;16424;50.956;5.320;2023-11-18T03:23:13;14.90;;;9.82;;
29452;SDS011;16424;50.956;5.320;2023-11-18T03:25:39;21.02;;;9.07;;
29452;SDS011;16424;50.956;5.320;2023-11-18T03:28:05;20.90;;;9.48;;
29452;SDS011;16424;50.956;5.320;2023-11-18T03:30:31;12.68;;;9.32;;
29452;SDS011;16424;50.956;5.320;2023-11-18T03:32:57;16.17;;;9.50;;
29452;SDS011;16424;50.956;5.320;2023-11-18T03:35:23;14.35;;;9.18;;
29452;SDS011;16424;50.956;5.320;2023-11-18T03:37:49;19.08;;;10.18;;
29452;SDS011;16424;50.956;5.320;2023-11-18T03:40:16;19.90;;;11.23;;
29452;SDS011;16424;50.956;5.320;2023-11-18T03:42:42;14.30;;;11.85;;
29452;SDS011;16424;50.956;5.320;2023-11-18T03:45:08;15.82;;;11.75;;
29452;SDS011;16424;50.956;5.320;2023-11-18T03:47:34;17.08;;;13.13;;
29452;SDS011;16424;50.956;5.320;2023-11-18T03:50:00;27.50;;;12.10;;
29452;SDS011;16424;50.956;5.320;2023-11-18T03:52:26;19.38;;;13.27;;
29452;SDS011;16424;50.956;5.320;2023-11-18T03:54:52;18.83;;;13.45;;
29452;SDS011;16424;50.956;5.320;2023-11-18T03:57:20;15.90;;;13.00;;
29452;SDS011;16424;50.956;5.320;2023-11-18T03:59:46;15.25;;;11.75;;
29452;SDS011;16424;50.956;5.320;2023-11-18T04:02:11;17.02;;;12.82;;
29452;SDS011;16424;50.956;5.320;2023-11-18T04:04:37;14.23;;;11.85;;
29452;SDS011;16424;50.956;5.320;2023-11-18T04:07:03;18.65;;;12.82;;
29452;SDS011;16424;50.956;5.320;2023-11-18T04:09:29;15.15;;;12.75;;
29452;SDS011;16424;50.956;5.320;2023-11-18T04:11:55;14.30;;;12.82;;
29452;SDS011;16424;50.956;5.320;2023-11-18T04:14:21;15.45;;;11.65;;
29452;SDS011;16424;50.956;5.320;2023-11-18T04:16:47;19.15;;;13.20;;
29452;SDS011;16424;50.956;5.320;2023-11-18T04:19:16;14.77;;;13.27;;
29452;SDS011;16424;50.956;5.320;2023-11-18T04:21:42;15.43;;;12.35;;
29452;SDS011;16424;50.956;5.320;2023-11-18T04:24:10;17.48;;;11.45;;
29452;SDS011;16424;50.956;5.320;2023-11-18T04:26:35;15.65;;;12.10;;
29452;SDS011;16424;50.956;5.320;2023-11-18T04:29:01;13.52;;;11.15;;
29452;SDS011;16424;50.956;5.320;2023-11-18T04:31:27;18.10;;;12.02;;
29452;SDS011;16424;50.956;5.320;2023-11-18T04:33:53;14.68;;;10.80;;
29452;SDS011;16424;50.956;5.320;2023-11-18T04:36:20;12.98;;;9.55;;
29452;SDS011;16424;50.956;5.320;2023-11-18T04:38:47;11.60;;;8.82;;
29452;SDS011;16424;50.956;5.320;2023-11-18T04:41:13;13.90;;;9.38;;
29452;SDS011;16424;50.956;5.320;2023-11-18T04:43:40;16.90;;;9.65;;
29452;SDS011;16424;50.956;5.320;2023-11-18T04:46:06;13.10;;;8.90;;
29452;SDS011;16424;50.956;5.320;2023-11-18T04:48:32;15.98;;;10.35;;
29452;SDS011;16424;50.956;5.320;2023-11-18T04:50:59;11.40;;;8.18;;
29452;SDS011;16424;50.956;5.320;2023-11-18T04:53:25;11.07;;;7.68;;
29452;SDS011;16424;50.956;5.320;2023-11-18T04:55:51;13.60;;;7.03;;
29452;SDS011;16424;50.956;5.320;2023-11-18T04:58:17;10.20;;;6.75;;
29452;SDS011;16424;50.956;5.320;2023-11-18T05:00:44;8.95;;;7.03;;
29452;SDS011;16424;50.956;5.320;2023-11-18T05:03:09;14.02;;;7.03;;
29452;SDS011;16424;50.956;5.320;2023-11-18T05:05:38;9.10;;;5.53;;
29452;SDS011;16424;50.956;5.320;2023-11-18T05:08:07;7.78;;;5.45;;
29452;SDS011;16424;50.956;5.320;2023-11-18T05:10:46;11.10;;;6.15;;
29452;SDS011;16424;50.956;5.320;2023-11-18T05:13:12;14.52;;;6.40;;
29452;SDS011;16424;50.956;5.320;2023-11-18T05:15:41;11.35;;;5.78;;
29452;SDS011;16424;50.956;5.320;2023-11-18T05:18:10;6.25;;;5.18;;
29452;SDS011;16424;50.956;5.320;2023-11-18T05:20:43;5.68;;;5.10;;
29452;SDS011;16424;50.956;5.320;2023-11-18T05:23:09;9.20;;;5.25;;
29452;SDS011;16424;50.956;5.320;2023-11-18T05:25:36;10.02;;;5.25;;
29452;SDS011;16424;50.956;5.320;2023-11-18T05:28:02;5.15;;;4.65;;
29452;SDS011;16424;50.956;5.320;2023-11-18T05:30:30;8.98;;;5.45;;
29452;SDS011;16424;50.956;5.320;2023-11-18T05:32:56;9.48;;;5.57;;
29452;SDS011;16424;50.956;5.320;2023-11-18T05:35:23;8.20;;;5.80;;
29452;SDS011;16424;50.956;5.320;2023-11-18T05:37:53;7.50;;;5.13;;
29452;SDS011;16424;50.956;5.320;2023-11-18T05:40:19;7.25;;;5.40;;
29452;SDS011;16424;50.956;5.320;2023-11-18T05:42:47;8.38;;;6.15;;
29452;SDS011;16424;50.956;5.320;2023-11-18T05:45:16;8.48;;;6.43;;
29452;SDS011;16424;50.956;5.320;2023-11-18T05:47:55;6.75;;;6.03;;
29452;SDS011;16424;50.956;5.320;2023-11-18T05:50:22;8.52;;;6.68;;
29452;SDS011;16424;50.956;5.320;2023-11-18T05:52:50;7.78;;;6.30;;
29452;SDS011;16424;50.956;5.320;2023-11-18T05:55:16;7.57;;;6.90;;
29452;SDS011;16424;50.956;5.320;2023-11-18T05:57:41;7.70;;;6.95;;
29452;SDS011;16424;50.956;5.320;2023-11-18T06:00:10;9.82;;;8.48;;
29452;SDS011;16424;50.956;5.320;2023-11-18T06:02:40;8.10;;;7.15;;
29452;SDS011;16424;50.956;5.320;2023-11-18T06:05:06;8.18;;;7.38;;
29452;SDS011;16424;50.956;5.320;2023-11-18T06:07:33;9.23;;;7.32;;
29452;SDS011;16424;50.956;5.320;2023-11-18T06:09:59;8.93;;;7.22;;
29452;SDS011;16424;50.956;5.320;2023-11-18T06:12:26;8.65;;;7.78;;
29452;SDS011;16424;50.956;5.320;2023-11-18T06:14:51;8.68;;;7.85;;
29452;SDS011;16424;50.956;5.320;2023-11-18T06:17:17;12.23;;;8.85;;
29452;SDS011;16424;50.956;5.320;2023-11-18T06:19:44;12.43;;;8.10;;
29452;SDS011;16424;50.956;5.320;2023-11-18T06:22:10;10.75;;;8.75;;
29452;SDS011;16424;50.956;5.320;2023-11-18T06:24:35;9.77;;;8.88;;
29452;SDS011;16424;50.956;5.320;2023-11-18T06:27:04;9.90;;;9.05;;
29452;SDS011;16424;50.956;5.320;2023-11-18T06:29:33;12.27;;;9.48;;
29452;SDS011;16424;50.956;5.320;2023-11-18T06:31:59;9.25;;;8.55;;
29452;SDS011;16424;50.956;5.320;2023-11-18T06:34:25;10.43;;;9.20;;
29452;SDS011;16424;50.956;5.320;2023-11-18T06:36:52;10.45;;;9.60;;
29452;SDS011;16424;50.956;5.320;2023-11-18T06:39:18;11.32;;;10.30;;
29452;SDS011;16424;50.956;5.320;2023-11-18T06:41:44;11.88;;;10.77;;
29452;SDS011;16424;50.956;5.320;2023-11-18T06:44:15;12.07;;;11.02;;
29452;SDS011;16424;50.956;5.320;2023-11-18T06:46:48;12.85;;;11.57;;
29452;SDS011;16424;50.956;5.320;2023-11-18T06:49:15;13.13;;;11.45;;
29452;SDS011;16424;50.956;5.320;2023-11-18T06:51:42;12.63;;;11.65;;
29452;SDS011;16424;50.956;5.320;2023-11-18T06:54:08;12.73;;;11.85;;
29452;SDS011;16424;50.956;5.320;2023-11-18T06:56:35;13.63;;;12.38;;
29452;SDS011;16424;50.956;5.320;2023-11-18T06:59:02;12.82;;;11.77;;
29452;SDS011;16424;50.956;5.320;2023-11-18T07:01:29;15.10;;;13.45;;
29452;SDS011;16424;50.956;5.320;2023-11-18T07:03:56;14.13;;;13.18;;
29452;SDS011;16424;50.956;5.320;2023-11-18T07:06:21;13.93;;;12.82;;
29452;SDS011;16424;50.956;5.320;2023-11-18T07:08:50;14.60;;;13.65;;
29452;SDS011;16424;50.956;5.320;2023-11-18T07:11:16;16.33;;;15.13;;
29452;SDS011;16424;50.956;5.320;2023-11-18T07:13:43;16.02;;;15.02;;
29452;SDS011;16424;50.956;5.320;2023-11-18T07:16:09;16.33;;;15.13;;
29452;SDS011;16424;50.956;5.320;2023-11-18T07:18:38;15.68;;;14.35;;
29452;SDS011;16424;50.956;5.320;2023-11-18T07:21:04;15.48;;;13.93;;
29452;SDS011;16424;50.956;5.320;2023-11-18T07:23:33;15.55;;;14.23;;
29452;SDS011;16424;50.956;5.320;2023-11-18T07:25:59;15.77;;;14.45;;
29452;SDS011;16424;50.956;5.320;2023-11-18T07:28:25;16.88;;;15.57;;
29452;SDS011;16424;50.956;5.320;2023-11-18T07:30:52;17.85;;;16.33;;
29452;SDS011;16424;50.956;5.320;2023-11-18T07:33:18;16.95;;;15.73;;
29452;SDS011;16424;50.956;5.320;2023-11-18T07:35:45;15.32;;;14.13;;
29452;SDS011;16424;50.956;5.320;2023-11-18T07:38:13;14.95;;;13.90;;
29452;SDS011;16424;50.956;5.320;2023-11-18T07:40:39;14.82;;;13.73;;
29452;SDS011;16424;50.956;5.320;2023-11-18T07:43:13;14.38;;;13.18;;
29452;SDS011;16424;50.956;5.320;2023-11-18T07:45:40;14.25;;;12.98;;
29452;SDS011;16424;50.956;5.320;2023-11-18T07:48:07;13.45;;;12.43;;
29452;SDS011;16424;50.956;5.320;2023-11-18T07:50:35;13.38;;;12.15;;
29452;SDS011;16424;50.956;5.320;2023-11-18T07:53:01;13.13;;;12.15;;
29452;SDS011;16424;50.956;5.320;2023-11-18T07:55:28;13.13;;;11.80;;
29452;SDS011;16424;50.956;5.320;2023-11-18T07:57:59;12.93;;;11.60;;
29452;SDS011;16424;50.956;5.320;2023-11-18T08:00:29;12.90;;;11.77;;
29452;SDS011;16424;50.956;5.320;2023-11-18T08:02:58;12.60;;;11.50;;
29452;SDS011;16424;50.956;5.320;2023-11-18T08:05:25;12.70;;;11.70;;
29452;SDS011;16424;50.956;5.320;2023-11-18T08:07:53;11.60;;;10.45;;
29452;SDS011;16424;50.956;5.320;2023-11-18T08:10:18;11.90;;;10.63;;
29452;SDS011;16424;50.956;5.320;2023-11-18T08:12:45;15.18;;;10.38;;
29452;SDS011;16424;50.956;5.320;2023-11-18T08:15:11;10.68;;;9.70;;
29452;SDS011;16424;50.956;5.320;2023-11-18T08:17:37;11.63;;;9.02;;
29452;SDS011;16424;50.956;5.320;2023-11-18T08:20:03;9.48;;;8.30;;
29452;SDS011;16424;50.956;5.320;2023-11-18T08:22:39;8.50;;;7.75;;
29452;SDS011;16424;50.956;5.320;2023-11-18T08:25:09;9.20;;;8.13;;
29452;SDS011;16424;50.956;5.320;2023-11-18T08:27:35;13.25;;;7.65;;
29452;SDS011;16424;50.956;5.320;2023-11-18T08:30:01;7.07;;;6.35;;
29452;SDS011;16424;50.956;5.320;2023-11-18T08:32:35;8.32;;;7.43;;
29452;SDS011;16424;50.956;5.320;2023-11-18T08:35:03;10.48;;;7.15;;
29452;SDS011;16424;50.956;5.320;2023-11-18T08:37:32;9.55;;;6.78;;
29452;SDS011;16424;50.956;5.320;2023-11-18T08:40:08;9.35;;;5.95;;
29452;SDS011;16424;50.956;5.320;2023-11-18T08:42:40;14.85;;;7.03;;
29452;SDS011;16424;50.956;5.320;2023-11-18T08:45:12;9.48;;;6.47;;
29452;SDS011;16424;50.956;5.320;2023-11-18T08:47:45;10.77;;;5.93;;
29452;SDS011;16424;50.956;5.320;2023-11-18T08:50:15;9.85;;;5.55;;
29452;SDS011;16424;50.956;5.320;2023-11-18T08:52:45;9.10;;;6.25;;
29452;SDS011;16424;50.956;5.320;2023-11-18T08:55:14;12.43;;;5.35;;
29452;SDS011;16424;50.956;5.320;2023-11-18T08:57:50;11.07;;;5.05;;
29452;SDS011;16424;50.956;5.320;2023-11-18T09:00:28;8.20;;;4.95;;
29452;SDS011;16424;50.956;5.320;2023-11-18T09:03:10;10.88;;;5.32;;
29452;SDS011;16424;50.956;5.320;2023-11-18T09:05:45;7.20;;;5.07;;
29452;SDS011;16424;50.956;5.320;2023-11-18T09:08:31;18.17;;;6.40;;
29452;SDS011;16424;50.956;5.320;2023-11-18T09:11:03;9.02;;;4.72;;
29452;SDS011;16424;50.956;5.320;2023-11-18T09:13:30;10.70;;;4.75;;
29452;SDS011;16424;50.956;5.320;2023-11-18T09:16:00;7.40;;;4.50;;
29452;SDS011;16424;50.956;5.320;2023-11-18T09:18:27;7.38;;;4.72;;
29452;SDS011;16424;50.956;5.320;2023-11-18T09:20:55;9.35;;;5.20;;
29452;SDS011;16424;50.956;5.320;2023-11-18T09:23:24;10.73;;;5.85;;
29452;SDS011;16424;50.956;5.320;2023-11-18T09:25:50;7.80;;;4.50;;
29452;SDS011;16424;50.956;5.320;2023-11-18T09:28:18;7.55;;;4.15;;
29452;SDS011;16424;50.956;5.320;2023-11-18T09:30:45;9.00;;;4.00;;
29452;SDS011;16424;50.956;5.320;2023-11-18T09:33:23;8.45;;;4.68;;
29452;SDS011;16424;50.956;5.320;2023-11-18T09:35:59;9.07;;;4.07;;
29452;SDS011;16424;50.956;5.320;2023-11-18T09:40:56;8.30;;;3.58;;
29452;SDS011;16424;50.956;5.320;2023-11-18T09:43:24;10.63;;;4.88;;
29452;SDS011;16424;50.956;5.320;2023-11-18T09:45:54;12.65;;;5.20;;
29452;SDS011;16424;50.956;5.320;2023-11-18T09:48:20;15.00;;;5.13;;
29452;SDS011;16424;50.956;5.320;2023-11-18T09:50:51;8.38;;;4.68;;
29452;SDS011;16424;50.956;5.320;2023-11-18T09:53:17;10.85;;;5.00;;
29452;SDS011;16424;50.956;5.320;2023-11-18T09:55:52;10.93;;;4.18;;
29452;SDS011;16424;50.956;5.320;2023-11-18T09:58:25;10.38;;;5.70;;
29452;SDS011;16424;50.956;5.320;2023-11-18T10:01:01;7.40;;;3.88;;
29452;SDS011;16424;50.956;5.320;2023-11-18T10:03:28;10.07;;;4.70;;
29452;SDS011;16424;50.956;5.320;2023-11-18T10:05:54;9.77;;;4.35;;
29452;SDS011;16424;50.956;5.320;2023-11-18T10:08:22;4.60;;;3.67;;
29452;SDS011;16424;50.956;5.320;2023-11-18T10:10:51;9.70;;;3.80;;
29452;SDS011;16424;50.956;5.320;2023-11-18T10:13:29;9.27;;;4.32;;
29452;SDS011;16424;50.956;5.320;2023-11-18T10:15:56;9.85;;;3.60;;
29452;SDS011;16424;50.956;5.320;2023-11-18T10:18:22;6.85;;;3.80;;
29452;SDS011;16424;50.956;5.320;2023-11-18T10:20:49;9.85;;;3.97;;
29452;SDS011;16424;50.956;5.320;2023-11-18T10:23:19;6.30;;;3.70;;
29452;SDS011;16424;50.956;5.320;2023-11-18T10:28:22;4.78;;;3.67;;
29452;SDS011;16424;50.956;5.320;2023-11-18T10:30:57;8.55;;;4.00;;
29452;SDS011;16424;50.956;5.320;2023-11-18T10:33:28;6.88;;;3.35;;
29452;SDS011;16424;50.956;5.320;2023-11-18T10:36:16;5.40;;;3.22;;
29452;SDS011;16424;50.956;5.320;2023-11-18T10:38:49;10.38;;;4.38;;
29452;SDS011;16424;50.956;5.320;2023-11-18T10:41:20;10.07;;;3.53;;
29452;SDS011;16424;50.956;5.320;2023-11-18T10:43:48;6.32;;;3.80;;
29452;SDS011;16424;50.956;5.320;2023-11-18T10:46:14;11.90;;;5.55;;
29452;SDS011;16424;50.956;5.320;2023-11-18T10:48:44;9.13;;;3.50;;
29452;SDS011;16424;50.956;5.320;2023-11-18T10:51:20;10.48;;;5.45;;
29452;SDS011;16424;50.956;5.320;2023-11-18T10:53:49;8.75;;;2.95;;
29452;SDS011;16424;50.956;5.320;2023-11-18T10:56:23;12.88;;;11.85;;
29452;SDS011;16424;50.956;5.320;2023-11-18T10:58:55;14.02;;;3.53;;
29452;SDS011;16424;50.956;5.320;2023-11-18T11:03:54;9.15;;;3.95;;
29452;SDS011;16424;50.956;5.320;2023-11-18T11:06:26;5.65;;;3.60;;
29452;SDS011;16424;50.956;5.320;2023-11-18T11:08:58;8.50;;;5.78;;
29452;SDS011;16424;50.956;5.320;2023-11-18T11:11:24;8.85;;;4.85;;
29452;SDS011;16424;50.956;5.320;2023-11-18T11:13:56;16.48;;;10.07;;
29452;SDS011;16424;50.956;5.320;2023-11-18T11:16:23;12.55;;;11.38;;
29452;SDS011;16424;50.956;5.320;2023-11-18T11:19:09;6.55;;;4.20;;
29452;SDS011;16424;50.956;5.320;2023-11-18T11:21:52;7.25;;;4.68;;
29452;SDS011;16424;50.956;5.320;2023-11-18T11:27:46;7.45;;;5.70;;
29452;SDS011;16424;50.956;5.320;2023-11-18T11:30:28;8.05;;;4.68;;
29452;SDS011;16424;50.956;5.320;2023-11-18T11:33:09;5.65;;;4.43;;
29452;SDS011;16424;50.956;5.320;2023-11-18T11:35:46;11.15;;;5.72;;
29452;SDS011;16424;50.956;5.320;2023-11-18T11:38:17;7.57;;;6.97;;
29452;SDS011;16424;50.956;5.320;2023-11-18T11:40:44;4.95;;;4.50;;
29452;SDS011;16424;50.956;5.320;2023-11-18T11:43:12;8.63;;;7.10;;
29452;SDS011;16424;50.956;5.320;2023-11-18T11:45:46;6.30;;;4.75;;
29452;SDS011;16424;50.956;5.320;2023-11-18T11:48:22;9.75;;;8.85;;
29452;SDS011;16424;50.956;5.320;2023-11-18T11:54:01;6.78;;;6.18;;
29452;SDS011;16424;50.956;5.320;2023-11-18T11:56:50;10.60;;;7.27;;
29452;SDS011;16424;50.956;5.320;2023-11-18T12:02:27;9.10;;;7.88;;
29452;SDS011;16424;50.956;5.320;2023-11-18T12:04:57;7.95;;;7.00;;
29452;SDS011;16424;50.956;5.320;2023-11-18T12:07:27;9.32;;;8.63;;
29452;SDS011;16424;50.956;5.320;2023-11-18T12:09:56;9.90;;;9.00;;
29452;SDS011;16424;50.956;5.320;2023-11-18T12:12:24;9.65;;;9.05;;
29452;SDS011;16424;50.956;5.320;2023-11-18T12:14:54;12.15;;;11.43;;
29452;SDS011;16424;50.956;5.320;2023-11-18T12:23:12;15.52;;;14.63;;
29452;SDS011;16424;50.956;5.320;2023-11-18T12:25:41;18.13;;;16.73;;
29452;SDS011;16424;50.956;5.320;2023-11-18T12:28:07;18.42;;;17.38;;
29452;SDS011;16424;50.956;5.320;2023-11-18T12:33:03;21.83;;;20.65;;
29452;SDS011;16424;50.956;5.320;2023-11-18T12:38:26;36.15;;;34.17;;
29452;SDS011;16424;50.956;5.320;2023-11-18T12:49:47;23.33;;;22.13;;
29452;SDS011;16424;50.956;5.320;2023-11-18T12:52:19;19.80;;;18.80;;
29452;SDS011;16424;50.956;5.320;2023-11-18T12:54:47;30.48;;;28.58;;
29452;SDS011;16424;50.956;5.320;2023-11-18T12:57:16;21.85;;;20.55;;
29452;SDS011;16424;50.956;5.320;2023-11-18T12:59:47;34.28;;;32.45;;
29452;SDS011;16424;50.956;5.320;2023-11-18T13:02:15;20.50;;;19.50;;
29452;SDS011;16424;50.956;5.320;2023-11-18T13:04:47;19.15;;;18.13;;
29452;SDS011;16424;50.956;5.320;2023-11-18T13:07:17;19.27;;;18.33;;
29452;SDS011;16424;50.956;5.320;2023-11-18T13:09:43;21.48;;;20.33;;
29452;SDS011;16424;50.956;5.320;2023-11-18T13:12:10;18.05;;;17.15;;
29452;SDS011;16424;50.956;5.320;2023-11-18T13:14:40;18.50;;;17.58;;
29452;SDS011;16424;50.956;5.320;2023-11-18T13:17:10;17.38;;;16.45;;
29452;SDS011;16424;50.956;5.320;2023-11-18T13:19:38;23.70;;;22.42;;
29452;SDS011;16424;50.956;5.320;2023-11-18T13:22:05;21.00;;;19.88;;
29452;SDS011;16424;50.956;5.320;2023-11-18T13:24:36;20.02;;;18.92;;
29452;SDS011;16424;50.956;5.320;2023-11-18T13:27:05;22.15;;;21.05;;
29452;SDS011;16424;50.956;5.320;2023-11-18T13:29:34;19.35;;;18.25;;
29452;SDS011;16424;50.956;5.320;2023-11-18T13:32:01;20.23;;;19.13;;
29452;SDS011;16424;50.956;5.320;2023-11-18T13:34:32;20.60;;;19.60;;
29452;SDS011;16424;50.956;5.320;2023-11-18T13:37:01;18.30;;;17.40;;
29452;SDS011;16424;50.956;5.320;2023-11-18T13:39:28;32.15;;;30.60;;
29452;SDS011;16424;50.956;5.320;2023-11-18T13:41:56;36.42;;;34.60;;
29452;SDS011;16424;50.956;5.320;2023-11-18T13:44:37;21.50;;;20.50;;
29452;SDS011;16424;50.956;5.320;2023-11-18T13:47:09;30.42;;;28.83;;
29452;SDS011;16424;50.956;5.320;2023-11-18T13:49:38;23.42;;;22.23;;
29452;SDS011;16424;50.956;5.320;2023-11-18T13:52:09;20.13;;;19.23;;
29452;SDS011;16424;50.956;5.320;2023-11-18T13:54:37;22.95;;;21.65;;
29452;SDS011;16424;50.956;5.320;2023-11-18T13:57:04;22.25;;;21.08;;
29452;SDS011;16424;50.956;5.320;2023-11-18T13:59:30;20.58;;;19.33;;
29452;SDS011;16424;50.956;5.320;2023-11-18T14:01:58;22.70;;;21.50;;
29452;SDS011;16424;50.956;5.320;2023-11-18T14:04:28;20.17;;;19.08;;
29452;SDS011;16424;50.956;5.320;2023-11-18T14:06:57;23.67;;;22.40;;
29452;SDS011;16424;50.956;5.320;2023-11-18T14:09:24;18.90;;;18.00;;
29452;SDS011;16424;50.956;5.320;2023-11-18T14:11:51;31.77;;;30.17;;
29452;SDS011;16424;50.956;5.320;2023-11-18T14:14:20;18.77;;;17.80;;
29452;SDS011;16424;50.956;5.320;2023-11-18T14:16:46;17.88;;;16.98;;
29452;SDS011;16424;50.956;5.320;2023-11-18T14:19:12;17.98;;;17.05;;
29452;SDS011;16424;50.956;5.320;2023-11-18T14:21:38;16.65;;;15.85;;
29452;SDS011;16424;50.956;5.320;2023-11-18T14:24:06;19.48;;;18.55;;
29452;SDS011;16424;50.956;5.320;2023-11-18T14:26:33;17.52;;;16.63;;
29452;SDS011;16424;50.956;5.320;2023-11-18T14:28:59;19.80;;;18.80;;
29452;SDS011;16424;50.956;5.320;2023-11-18T14:31:25;23.60;;;22.48;;
29452;SDS011;16424;50.956;5.320;2023-11-18T14:33:51;17.25;;;16.45;;
29452;SDS011;16424;50.956;5.320;2023-11-18T14:36:17;16.73;;;15.82;;
29452;SDS011;16424;50.956;5.320;2023-11-18T14:38:44;20.75;;;19.70;;
29452;SDS011;16424;50.956;5.320;2023-11-18T14:41:10;21.10;;;19.90;;
29452;SDS011;16424;50.956;5.320;2023-11-18T14:43:36;21.80;;;20.70;;
29452;SDS011;16424;50.956;5.320;2023-11-18T14:46:02;18.77;;;17.90;;
29452;SDS011;16424;50.956;5.320;2023-11-18T14:48:29;19.05;;;18.15;;
29452;SDS011;16424;50.956;5.320;2023-11-18T14:50:54;30.25;;;28.67;;
29452;SDS011;16424;50.956;5.320;2023-11-18T14:53:22;19.50;;;18.58;;
29452;SDS011;16424;50.956;5.320;2023-11-18T14:55:48;20.58;;;19.58;;
29452;SDS011;16424;50.956;5.320;2023-11-18T14:58:14;20.55;;;19.40;;
29452;SDS011;16424;50.956;5.320;2023-11-18T15:00:39;20.00;;;19.05;;
29452;SDS011;16424;50.956;5.320;2023-11-18T15:03:07;26.27;;;25.02;;
29452;SDS011;16424;50.956;5.320;2023-11-18T15:05:33;27.35;;;25.88;;
29452;SDS011;16424;50.956;5.320;2023-11-18T15:07:59;22.23;;;21.13;;
29452;SDS011;16424;50.956;5.320;2023-11-18T15:10:26;21.67;;;20.58;;
29452;SDS011;16424;50.956;5.320;2023-11-18T15:12:53;22.60;;;21.50;;
29452;SDS011;16424;50.956;5.320;2023-11-18T15:15:23;27.80;;;26.50;;
29452;SDS011;16424;50.956;5.320;2023-11-18T15:17:56;20.83;;;19.83;;